Airfield :
LOGIN :

Register | Disclaimer

   EN    FR    IT 

 










Legend :    VFR   Marginal VFR   IFR   Intensive IFR   Very Intensive IFR
Visi :
Ceiling :
>= 8 km
>= 3000ft
5 to 8 km
1000 to 3000 ft
1500m to 5 km
500 to 1000 ft
800 to 1500m
200 to 500 ft
< 800m
< 200 ft
Symbols :   Thunderstorms  Fog  Heavy snow  Heavy precipitations  Wind > 20 kt
SIGMETs :     Misc.  Thunderstorms  Icing  Turbulence  Mountain Waves  Volcanic Ashes







- Airport Elevation : 978 ft
- IATA code : LNZ


LOWL - Linz

CURRENT METAR :
  • 201420Z 19005KT 160V220 9999 -RA FEW008 BKN050 14/12 Q1002 TEMPO RA FEW006 BKN013

EXPIRED METARs :
  • 201350Z 20005KT 9999 -RA FEW008 SCT042 BKN080 14/12 Q1002 TEMPO RA FEW006 BKN013
  • 201320Z 18005KT 130V220 9999 -RA FEW009 SCT032 BKN044 14/12 Q1002 TEMPO RA FEW006 BKN013
  • 201250Z 19005KT 150V210 9999 -RA FEW006 BKN028 14/12 Q1002 TEMPO RA FEW006 BKN013
  • 201220Z 19005KT 9999 -RA FEW005 SCT009 BKN026 14/12 Q1002 TEMPO 4000 RA FEW005 BKN009
  • 201150Z 20004KT 170V230 9999 -RA FEW005 BKN024 14/13 Q1002 TEMPO 4000 RA FEW004 BKN006

TAF TAF LOWL
Valid from the 20 at 12:00 until the 21 at 12:00 UTC


201115Z 2012/2112 VRB03KT 6000 -RA FEW008 BKN025 TX15/2015Z TN11/2102Z
TEMPO 2012/2112 4000 RA FEW004 BKN006
PROB30
TEMPO 2013/2017 TSRA SCT020 FEW025CB BKN030
No reported NOTAMs for that airfield.
1 SIGMET reported for the Wien FIR (LOVV) :
 
Frequent thunderstorms
LOVV SIGMET 1 VALID 201430/201530 LOWW
LOVV WIEN FIR FRQ TS FCST AT 1430Z WI N4812 E01609 - N4748 E01532 - N4800 E01503 - N4907 E01538 - N4856 E01607 - N4812 E01609 TOP FL320 STNR WKN=



MET'MAP, your aeronautical weather chart ! - Copyright ORBIFLY December 2007 - Disclaimer

ORBIFLY MET'MAP TEAM :

Programming & Development : Alexandra Zaïnal
Concept & Development : Baudouin d'Aumeries
Co-Development & Prog : Marc-Olivier Méhu
Technical & hardware support : Manuel Goepfert

Contact : metmap@orbifly.com




SOURCES & CREDITS :

   NOAA